Terminal Aerodrome Forecast
Issued by NWS Wakefield, VA

Home | Current Version | Previous Version | Text Only | Print | Product List | Glossary On
Versions: 1 2 3 4 5 6 7 8 9 10 11 12 13 14 15 16 17 18 19 20 21 22 23
000
FTUS41 KAKQ 202331
TAFECG
TAF
KECG 202331Z 2100/2124 18008KT P6SM BKN250
     FM210500 19004KT 4SM BR BKN010
     FM210900 19008KT 1/2SM -DZ FG BKN005
     FM211300 20007KT 5SM BR SCT015
     FM211400 21009KT P6SM SCT030=

USA.gov is the U.S. government's official web portal to all federal, state and local government web resources and services.